Lake Shore, Texas
Current Conditions -  °F | °C
As of 1:35 PM on Wednesday 17 Dec 2014 (Local Time) from KBWD Reporting Station
Overcast Overcast  
Wind Chill: 45°   Ceiling: 2400
Heat Index: 48°   Visibility: 10mi
Dew Point: 36°   Wind: 7mph
Humidity: 62%   Direction: 170°S
Pressure: 30.08"   Gusts: NA
Location:  31.6193°N, 98.9922°W
Report Text: KBWD 171935Z AUTO 17006KT 10SM OVC024 09/02 A3008 RMK AO2
Loading
Personal Weather Stations






























Interactive Weather Map New forecast layout! Learn more

10-Day Weather Forecast

Advertisements
Track Severe Weather on mobile